Time;durP1;ratioP1;P1;durP2;ratioP2;P2;SDS_P1;SDS_P2;PMS_P1;PMS_P2;Temp;Humidity;BMP_temperature;BMP_pressure;BME280_temperature;BME280_humidity;BME280_pressure;Samples;Min_cycle;Max_cycle;Signal;HPM_P1;HPM_P2
2023/12/06 00:01:52;;;;;;;24.37;10.80;;;0.30;95.30;;;;;;5068426;28;20220;-67
2023/12/06 00:04:19;;;;;;;24.47;11.17;;;0.30;95.30;;;;;;5053856;28;20223;-67
2023/12/06 00:06:46;;;;;;;23.57;11.27;;;0.20;95.30;;;;;;5054567;28;20228;-67
2023/12/06 00:09:13;;;;;;;22.23;11.03;;;0.20;95.30;;;;;;5053151;28;20251;-67
2023/12/06 00:11:40;;;;;;;28.17;12.67;;;0.20;95.40;;;;;;5054441;28;20616;-68
2023/12/06 00:14:07;;;;;;;21.03;10.30;;;0.20;95.50;;;;;;5073023;28;20227;-68
2023/12/06 00:16:34;;;;;;;22.90;10.03;;;0.20;95.50;;;;;;5072032;28;20747;-68
2023/12/06 00:19:02;;;;;;;21.83;10.83;;;0.20;95.50;;;;;;5054430;28;20204;-68
2023/12/06 00:21:30;;;;;;;20.73;9.47;;;0.20;95.50;;;;;;5068024;28;20221;-68
2023/12/06 00:23:57;;;;;;;20.80;10.30;;;0.20;95.50;;;;;;5053681;28;20305;-67
2023/12/06 00:26:24;;;;;;;22.73;10.27;;;0.20;95.60;;;;;;5054307;28;20196;-68
2023/12/06 00:28:51;;;;;;;21.17;10.07;;;0.20;95.60;;;;;;5072238;28;20732;-68
2023/12/06 00:31:19;;;;;;;25.13;12.30;;;0.20;95.60;;;;;;5060926;28;20201;-68
2023/12/06 00:33:46;;;;;;;26.27;12.50;;;-0.90;95.10;;;;;;5072078;28;20848;-68
2023/12/06 00:36:15;;;;;;;22.47;11.23;;;0.30;95.50;;;;;;5054336;28;20209;-67
2023/12/06 00:38:42;;;;;;;22.93;11.80;;;0.30;95.40;;;;;;5071957;28;20284;-68
2023/12/06 00:41:09;;;;;;;22.47;10.97;;;0.30;95.50;;;;;;5061161;28;20185;-68
2023/12/06 00:43:36;;;;;;;22.97;10.90;;;0.30;95.60;;;;;;5071730;28;20254;-68
2023/12/06 00:46:03;;;;;;;28.00;12.87;;;0.10;95.60;;;;;;5070623;28;20188;-67
2023/12/06 00:48:31;;;;;;;28.07;12.63;;;0.20;95.70;;;;;;5071134;28;20193;-67
2023/12/06 00:50:58;;;;;;;27.90;12.73;;;0.20;95.70;;;;;;5054271;28;20197;-67
2023/12/06 00:53:27;;;;;;;24.23;11.67;;;0.20;95.70;;;;;;5053904;28;20568;-67
2023/12/06 00:55:55;;;;;;;26.73;12.23;;;0.20;95.80;;;;;;5071819;28;20272;-67
2023/12/06 00:58:22;;;;;;;30.57;14.23;;;0.20;95.80;;;;;;5053019;28;20220;-67
2023/12/06 01:00:49;;;;;;;25.43;12.37;;;0.20;95.80;;;;;;5072258;28;20189;-67
2023/12/06 01:03:16;;;;;;;26.13;11.37;;;0.30;95.80;;;;;;5071103;28;20236;-67
2023/12/06 01:05:43;;;;;;;20.90;10.60;;;0.30;95.80;;;;;;5053579;28;20718;-67
2023/12/06 01:08:10;;;;;;;26.00;12.73;;;0.20;95.80;;;;;;5053374;28;20220;-68
2023/12/06 01:10:38;;;;;;;26.53;12.90;;;0.30;95.90;;;;;;5066046;28;20638;-68
2023/12/06 01:13:06;;;;;;;25.83;12.57;;;0.30;95.90;;;;;;5053427;28;20197;-69
2023/12/06 01:15:33;;;;;;;29.33;13.40;;;0.30;95.90;;;;;;5072324;28;20664;-68
2023/12/06 01:18:00;;;;;;;28.47;13.50;;;0.30;95.80;;;;;;5050768;28;20220;-67
2023/12/06 01:20:27;;;;;;;32.33;14.80;;;0.30;95.80;;;;;;5050720;28;20262;-68
2023/12/06 01:22:54;;;;;;;30.27;14.10;;;0.40;95.80;;;;;;5069955;28;20212;-68
2023/12/06 01:25:21;;;;;;;30.20;13.53;;;0.40;95.90;;;;;;5067116;28;20193;-68
2023/12/06 01:27:49;;;;;;;29.80;13.60;;;0.40;95.80;;;;;;5070869;28;20193;-68
2023/12/06 01:30:17;;;;;;;22.53;11.00;;;0.40;95.80;;;;;;5070161;28;20182;-68
2023/12/06 01:32:44;;;;;;;21.80;11.10;;;0.40;95.80;;;;;;5070857;28;20189;-68
2023/12/06 01:35:11;;;;;;;19.27;9.57;;;0.40;95.90;;;;;;5070381;28;20219;-68
2023/12/06 01:37:38;;;;;;;22.80;10.27;;;0.40;95.90;;;;;;5069676;28;20254;-67
2023/12/06 01:40:06;;;;;;;22.43;10.43;;;0.40;95.90;;;;;;5071042;28;20276;-68
2023/12/06 01:42:33;;;;;;;22.03;10.43;;;0.40;95.90;;;;;;5070706;28;20209;-67
2023/12/06 01:45:02;;;;;;;23.77;11.30;;;0.40;95.90;;;;;;5070886;28;20239;-67
2023/12/06 01:47:31;;;;;;;23.40;11.73;;;0.50;96.00;;;;;;5070748;28;20191;-69
2023/12/06 01:50:00;;;;;;;24.43;11.10;;;0.50;95.90;;;;;;5067302;28;20235;-68
2023/12/06 01:52:27;;;;;;;18.63;9.93;;;0.50;95.90;;;;;;5065017;28;20243;-67
2023/12/06 01:54:58;;;;;;;20.03;10.60;;;0.50;95.90;;;;;;5069608;28;20205;-67
2023/12/06 01:57:25;;;;;;;19.57;9.97;;;0.50;95.90;;;;;;5052389;28;20197;-67
2023/12/06 01:59:55;;;;;;;17.70;9.13;;;0.50;95.90;;;;;;5052535;28;20204;-67
2023/12/06 02:02:24;;;;;;;12.93;7.80;;;0.40;96.20;;;;;;5045994;28;21066;-67
2023/12/06 02:04:51;;;;;;;21.50;10.77;;;0.40;95.90;;;;;;5069973;28;20683;-67
2023/12/06 02:07:20;;;;;;;25.47;12.80;;;0.50;96.00;;;;;;5052987;28;20228;-67
2023/12/06 02:09:48;;;;;;;24.47;12.63;;;0.40;95.80;;;;;;5057277;28;20216;-67
2023/12/06 02:12:15;;;;;;;27.17;13.57;;;0.40;95.70;;;;;;5052467;28;20204;-67
2023/12/06 02:14:42;;;;;;;24.30;12.57;;;0.40;95.70;;;;;;5039684;28;20724;-67
2023/12/06 02:17:10;;;;;;;29.67;14.43;;;0.40;95.70;;;;;;5066181;28;20221;-67
2023/12/06 02:19:40;;;;;;;26.87;13.20;;;0.30;95.60;;;;;;5038979;28;20208;-67
2023/12/06 02:22:08;;;;;;;27.90;13.97;;;0.20;95.60;;;;;;5072142;28;20254;-66
2023/12/06 02:24:36;;;;;;;32.93;16.27;;;0.10;95.60;;;;;;5049471;28;20220;-67
2023/12/06 02:27:05;;;;;;;26.43;13.73;;;0.00;95.50;;;;;;5065833;28;20513;-67
2023/12/06 02:29:32;;;;;;;24.27;12.53;;;-0.10;95.60;;;;;;5051900;28;20220;-67
2023/12/06 02:31:59;;;;;;;24.60;12.10;;;-0.10;95.70;;;;;;5069667;28;20236;-67
2023/12/06 02:34:27;;;;;;;28.03;13.57;;;-0.10;95.80;;;;;;5070050;28;20264;-67
2023/12/06 02:37:03;;;;;;;34.03;15.93;;;-0.10;95.80;;;;;;5060649;28;20185;-67
2023/12/06 02:39:35;;;;;;;31.50;15.60;;;-0.10;95.80;;;;;;5069889;28;20220;-67
2023/12/06 02:42:02;;;;;;;33.87;15.33;;;-0.10;95.70;;;;;;5069603;28;20274;-67
2023/12/06 02:44:30;;;;;;;31.27;15.50;;;-0.10;95.70;;;;;;5034492;28;20209;-67
2023/12/06 02:46:57;;;;;;;29.80;14.80;;;-0.20;95.70;;;;;;5062090;28;20270;-68
2023/12/06 02:49:24;;;;;;;34.50;17.00;;;-0.30;95.50;;;;;;5051493;28;20606;-68
2023/12/06 02:51:52;;;;;;;35.23;17.07;;;-0.30;95.50;;;;;;5069544;28;20228;-68
2023/12/06 02:54:19;;;;;;;28.30;14.80;;;-0.30;95.50;;;;;;5070081;28;20193;-68
2023/12/06 02:56:46;;;;;;;26.87;13.57;;;-0.40;95.50;;;;;;5051388;28;20652;-68
2023/12/06 02:59:13;;;;;;;24.93;12.63;;;-0.40;95.60;;;;;;5069196;28;20674;-67
2023/12/06 03:01:46;;;;;;;29.00;14.93;;;-0.50;95.60;;;;;;5066813;28;20184;-67
2023/12/06 03:04:13;;;;;;;31.97;15.67;;;-0.50;95.60;;;;;;5060243;28;20225;-67
2023/12/06 03:06:40;;;;;;;31.37;15.13;;;-0.50;95.60;;;;;;5069518;28;20193;-67
2023/12/06 03:09:07;;;;;;;30.93;15.43;;;-0.60;95.60;;;;;;5069180;28;20280;-68
2023/12/06 03:11:34;;;;;;;34.90;17.27;;;-0.60;95.60;;;;;;5069667;28;20193;-68
2023/12/06 03:14:01;;;;;;;35.57;17.77;;;-0.70;95.60;;;;;;5052055;28;20552;-67
2023/12/06 03:16:28;;;;;;;33.43;17.00;;;-0.70;95.60;;;;;;5051485;28;20197;-67
2023/12/06 03:18:57;;;;;;;36.90;17.90;;;-0.80;95.70;;;;;;5051109;28;20563;-68
2023/12/06 03:21:24;;;;;;;33.17;16.27;;;-0.80;95.80;;;;;;5064715;28;21012;-67
2023/12/06 03:23:51;;;;;;;36.23;16.80;;;-0.90;96.10;;;;;;5064930;28;20208;-67
2023/12/06 03:26:18;;;;;;;28.23;14.57;;;-1.00;96.00;;;;;;5066648;28;20251;-67
2023/12/06 03:28:45;;;;;;;35.87;17.23;;;-1.00;96.20;;;;;;5067436;28;20255;-67
2023/12/06 03:31:12;;;;;;;36.53;17.40;;;-0.90;96.40;;;;;;5067846;28;20652;-67
2023/12/06 03:33:39;;;;;;;32.60;16.20;;;-0.90;96.50;;;;;;5067780;28;20698;-67
2023/12/06 03:36:10;;;;;;;30.40;14.87;;;-1.00;96.50;;;;;;5061373;28;20201;-67
2023/12/06 03:38:38;;;;;;;23.63;13.27;;;-1.00;96.60;;;;;;5051148;28;20197;-67
2023/12/06 03:41:05;;;;;;;32.20;16.13;;;-1.10;96.70;;;;;;5052401;28;20197;-68
2023/12/06 03:43:32;;;;;;;33.60;16.33;;;-1.10;96.90;;;;;;5068585;28;20304;-68
2023/12/06 03:45:59;;;;;;;27.33;13.73;;;-1.10;97.00;;;;;;5069585;28;20201;-67
2023/12/06 03:48:26;;;;;;;25.37;13.13;;;-1.10;97.10;;;;;;5050659;28;20316;-67
2023/12/06 03:50:53;;;;;;;26.67;14.07;;;-1.20;97.20;;;;;;5069627;28;20217;-67
2023/12/06 03:53:21;;;;;;;31.67;16.10;;;-1.10;97.40;;;;;;5068943;28;20205;-68
2023/12/06 03:55:48;;;;;;;36.07;18.03;;;-1.10;97.50;;;;;;5061476;28;20190;-68
2023/12/06 03:58:15;;;;;;;29.37;15.20;;;-1.10;97.60;;;;;;5059308;28;20532;-68
2023/12/06 04:00:42;;;;;;;29.03;14.77;;;-1.20;97.60;;;;;;5073525;28;20196;-67
2023/12/06 04:03:09;;;;;;;30.20;14.80;;;-1.20;97.80;;;;;;5063731;28;20260;-66
2023/12/06 04:05:36;;;;;;;28.13;14.23;;;-1.10;98.00;;;;;;5072872;28;20197;-66
2023/12/06 04:08:03;;;;;;;28.43;14.53;;;-1.10;98.10;;;;;;5069839;28;20185;-68
2023/12/06 04:10:32;;;;;;;33.33;17.23;;;-1.20;98.10;;;;;;5072996;28;20553;-66
2023/12/06 04:12:59;;;;;;;28.47;13.77;;;-1.20;98.20;;;;;;5054227;28;20235;-66
2023/12/06 04:15:26;;;;;;;30.67;16.27;;;-1.20;98.30;;;;;;5055003;28;20232;-66
2023/12/06 04:17:53;;;;;;;32.60;15.83;;;-1.20;98.40;;;;;;5071473;28;20220;-67
2023/12/06 04:20:20;;;;;;;35.77;16.77;;;-1.20;98.60;;;;;;5072498;28;20199;-66
2023/12/06 04:22:47;;;;;;;26.50;14.17;;;-1.20;98.80;;;;;;5072446;28;20193;-66
2023/12/06 04:25:14;;;;;;;24.27;12.20;;;-1.20;98.90;;;;;;5054714;28;20212;-66
2023/12/06 04:27:43;;;;;;;24.07;11.80;;;-1.20;99.00;;;;;;5050226;28;20201;-67
2023/12/06 04:30:12;;;;;;;23.10;12.30;;;-1.20;99.10;;;;;;5064564;28;20189;-67
2023/12/06 04:32:39;;;;;;;30.83;15.73;;;-1.10;99.20;;;;;;5064896;28;20288;-66
2023/12/06 04:35:10;;;;;;;30.30;15.80;;;-1.10;99.30;;;;;;5072154;28;20288;-66
2023/12/06 04:37:37;;;;;;;32.57;16.70;;;-1.00;99.30;;;;;;5066218;28;20216;-66
2023/12/06 04:40:05;;;;;;;30.90;16.57;;;-1.00;99.30;;;;;;5072102;28;20225;-67
2023/12/06 04:42:33;;;;;;;34.90;16.83;;;-0.90;99.30;;;;;;5069327;28;20196;-67
2023/12/06 04:45:01;;;;;;;33.70;17.20;;;-0.90;99.40;;;;;;5072311;28;20278;-66
2023/12/06 04:47:28;;;;;;;35.37;17.57;;;-0.90;99.60;;;;;;5069760;28;20197;-67
2023/12/06 04:49:55;;;;;;;32.17;16.30;;;-0.90;99.40;;;;;;5071527;28;20297;-67
2023/12/06 04:52:24;;;;;;;31.13;15.97;;;-0.90;99.60;;;;;;5072266;28;20805;-67
2023/12/06 04:54:51;;;;;;;29.17;15.77;;;-0.90;99.60;;;;;;5053834;28;20338;-67
2023/12/06 04:57:19;;;;;;;27.27;14.10;;;-0.90;99.70;;;;;;5071432;28;20284;-66
2023/12/06 04:59:46;;;;;;;27.37;14.83;;;-0.90;99.70;;;;;;5070688;28;20711;-67
2023/12/06 05:02:14;;;;;;;26.00;13.33;;;-0.80;99.80;;;;;;5069040;28;20232;-66
2023/12/06 05:04:41;;;;;;;24.40;13.03;;;-0.70;99.80;;;;;;5070733;28;20209;-66
2023/12/06 05:07:08;;;;;;;25.23;13.13;;;-0.80;99.90;;;;;;5072099;28;20668;-66
2023/12/06 05:09:35;;;;;;;17.83;10.70;;;-0.90;99.90;;;;;;5068651;28;20197;-67
2023/12/06 05:12:02;;;;;;;23.13;12.40;;;-0.80;99.90;;;;;;5071461;28;20193;-67
2023/12/06 05:14:30;;;;;;;25.47;12.77;;;-0.80;99.90;;;;;;5053844;28;20201;-66
2023/12/06 05:16:57;;;;;;;24.10;12.53;;;-0.80;99.90;;;;;;5053309;28;20223;-66
2023/12/06 05:19:26;;;;;;;20.73;11.47;;;-0.70;99.90;;;;;;5071326;28;20271;-67
2023/12/06 05:21:53;;;;;;;30.57;15.97;;;-0.70;99.90;;;;;;5053244;28;20197;-67
2023/12/06 05:24:20;;;;;;;34.53;16.93;;;-0.60;99.90;;;;;;5071203;28;20685;-66
2023/12/06 05:26:47;;;;;;;35.70;18.30;;;-0.60;99.90;;;;;;5070632;28;20199;-67
2023/12/06 05:29:14;;;;;;;32.20;16.53;;;-0.60;99.90;;;;;;5068500;28;20509;-67
2023/12/06 05:31:41;;;;;;;31.37;15.73;;;-0.60;99.90;;;;;;5067392;28;20613;-67
2023/12/06 05:34:09;;;;;;;30.77;17.33;;;-0.40;99.90;;;;;;5078083;28;20193;-67
2023/12/06 05:36:37;;;;;;;36.80;18.13;;;-0.50;99.90;;;;;;5070283;28;20661;-66
2023/12/06 05:39:05;;;;;;;32.50;16.50;;;-0.60;99.90;;;;;;5070789;28;20209;-66
2023/12/06 05:41:32;;;;;;;29.97;15.40;;;-0.60;99.90;;;;;;5070637;28;20552;-66
2023/12/06 05:43:59;;;;;;;25.60;13.27;;;-0.60;99.90;;;;;;5074270;28;20212;-66
2023/12/06 05:46:26;;;;;;;32.27;16.03;;;-0.60;99.90;;;;;;5070857;28;20217;-66
2023/12/06 05:48:53;;;;;;;33.97;16.70;;;-0.60;99.90;;;;;;5069275;28;20193;-66
2023/12/06 05:51:20;;;;;;;32.97;17.00;;;-0.60;99.90;;;;;;5070735;28;20199;-66
2023/12/06 05:53:49;;;;;;;33.63;16.63;;;-0.60;99.90;;;;;;5070835;28;20242;-66
2023/12/06 05:56:16;;;;;;;37.50;17.20;;;-0.60;99.90;;;;;;5052790;28;20270;-66
2023/12/06 05:58:43;;;;;;;27.20;13.97;;;-0.60;99.90;;;;;;5071180;28;20284;-66
2023/12/06 06:01:10;;;;;;;33.27;15.43;;;-0.60;99.90;;;;;;5070964;28;20620;-66
2023/12/06 06:03:38;;;;;;;27.10;13.90;;;0.10;99.90;;;;;;5071791;28;20248;-66
2023/12/06 06:06:06;;;;;;;32.37;16.03;;;-0.60;99.90;;;;;;5052662;28;20569;-66
2023/12/06 06:08:34;;;;;;;31.23;15.93;;;-0.60;99.90;;;;;;5065256;28;20647;-66
2023/12/06 06:11:04;;;;;;;32.77;16.40;;;-0.60;99.90;;;;;;5071035;28;20290;-66
2023/12/06 06:13:31;;;;;;;35.83;17.13;;;-0.60;99.90;;;;;;5069608;28;20723;-66
2023/12/06 06:15:58;;;;;;;29.10;15.47;;;-0.60;99.90;;;;;;5070679;28;20209;-66
2023/12/06 06:18:27;;;;;;;36.10;16.93;;;-0.60;99.90;;;;;;5069477;28;20224;-66
2023/12/06 06:20:54;;;;;;;32.00;15.93;;;-0.60;99.90;;;;;;5067997;28;20197;-66
2023/12/06 06:23:21;;;;;;;35.43;16.90;;;-0.60;99.90;;;;;;5072119;28;20197;-67
2023/12/06 06:25:48;;;;;;;34.50;16.93;;;-0.60;99.90;;;;;;5075451;28;20221;-66
2023/12/06 06:28:17;;;;;;;32.20;16.00;;;-0.60;99.90;;;;;;5054545;28;21065;-66
2023/12/06 06:30:44;;;;;;;33.73;16.43;;;-0.60;99.90;;;;;;5052100;28;20752;-67
2023/12/06 06:33:11;;;;;;;33.33;16.30;;;-0.60;99.90;;;;;;5071086;28;20240;-66
2023/12/06 06:35:38;;;;;;;39.97;18.17;;;-0.60;99.90;;;;;;5069554;28;20223;-67
2023/12/06 06:38:05;;;;;;;31.23;15.53;;;-0.50;99.90;;;;;;5069629;28;20221;-67
2023/12/06 06:40:32;;;;;;;34.10;16.47;;;-0.50;99.90;;;;;;5070469;28;20381;-67
2023/12/06 06:42:59;;;;;;;32.67;15.17;;;-0.50;99.90;;;;;;5069430;28;20231;-67
2023/12/06 06:45:27;;;;;;;26.87;14.03;;;-0.50;99.90;;;;;;5070481;28;20236;-67
2023/12/06 06:47:54;;;;;;;30.00;13.00;;;-0.50;99.90;;;;;;5069115;28;20260;-66
2023/12/06 06:50:21;;;;;;;28.27;13.53;;;-0.40;99.90;;;;;;5069597;28;20686;-66
2023/12/06 06:52:48;;;;;;;33.37;16.33;;;-0.40;99.90;;;;;;5070082;28;20295;-66
2023/12/06 06:55:16;;;;;;;35.37;16.97;;;-0.30;99.90;;;;;;5069882;28;20331;-66
2023/12/06 06:57:43;;;;;;;32.03;15.40;;;-0.30;99.90;;;;;;5067153;28;20221;-67
2023/12/06 07:00:12;;;;;;;44.93;20.57;;;-0.20;99.90;;;;;;5070621;28;20212;-66
2023/12/06 07:02:41;;;;;;;44.23;20.40;;;-0.20;99.90;;;;;;5065206;28;20232;-66
2023/12/06 07:05:12;;;;;;;40.53;18.87;;;-0.20;99.90;;;;;;5068193;28;20237;-66
2023/12/06 07:07:40;;;;;;;37.57;18.07;;;-0.20;99.90;;;;;;5050895;28;20276;-66
2023/12/06 07:10:09;;;;;;;37.30;18.00;;;-0.20;99.90;;;;;;5064884;28;20280;-66
2023/12/06 07:12:37;;;;;;;39.70;18.17;;;0.70;99.90;;;;;;5040983;28;20288;-66
2023/12/06 07:15:04;;;;;;;28.73;15.23;;;-0.20;99.90;;;;;;5067412;28;20197;-67
2023/12/06 07:17:31;;;;;;;30.70;15.23;;;-0.20;99.90;;;;;;5059666;28;20281;-67
2023/12/06 07:20:00;;;;;;;29.03;14.73;;;-0.20;99.90;;;;;;5065925;28;20219;-67
2023/12/06 07:22:27;;;;;;;29.80;15.13;;;-0.10;99.90;;;;;;5059311;28;20189;-67
2023/12/06 07:24:53;;;;;;;27.43;13.20;;;-0.10;99.90;;;;;;5066952;28;20299;-67
2023/12/06 07:27:21;;;;;;;23.00;12.03;;;-0.10;99.90;;;;;;5059515;28;20189;-67
2023/12/06 07:29:48;;;;;;;29.43;13.63;;;-0.10;99.90;;;;;;5065818;28;20201;-67
2023/12/06 07:32:15;;;;;;;31.50;15.23;;;-0.10;99.90;;;;;;5045185;28;20201;-67
2023/12/06 07:34:42;;;;;;;38.13;18.10;;;-0.10;99.90;;;;;;5050217;28;20195;-67
2023/12/06 07:37:10;;;;;;;40.00;18.33;;;-0.10;99.90;;;;;;5067280;28;20231;-67
2023/12/06 07:39:37;;;;;;;33.53;17.30;;;0.00;99.90;;;;;;5069281;28;20821;-67
2023/12/06 07:42:05;;;;;;;33.17;16.33;;;0.00;99.90;;;;;;5069079;28;20282;-67
2023/12/06 07:44:32;;;;;;;31.90;16.70;;;0.00;99.90;;;;;;5049886;28;20575;-67
2023/12/06 07:46:59;;;;;;;25.97;13.37;;;0.00;99.90;;;;;;5053009;28;20220;-67
2023/12/06 07:49:26;;;;;;;28.47;14.27;;;0.00;99.90;;;;;;5060223;28;20254;-67
2023/12/06 07:51:56;;;;;;;34.13;16.47;;;0.00;99.90;;;;;;5068379;28;20754;-67
2023/12/06 07:54:25;;;;;;;36.00;17.83;;;0.00;99.90;;;;;;5066013;28;20547;-67
2023/12/06 07:56:52;;;;;;;33.57;16.67;;;0.10;99.90;;;;;;5066400;28;20207;-67
2023/12/06 07:59:19;;;;;;;27.47;13.40;;;0.10;99.90;;;;;;5070129;28;20262;-68
2023/12/06 08:01:46;;;;;;;30.43;15.13;;;0.00;99.90;;;;;;5072706;28;20193;-67
2023/12/06 08:04:14;;;;;;;31.33;15.23;;;0.10;99.90;;;;;;5050716;28;20442;-66
2023/12/06 08:06:41;;;;;;;31.20;15.37;;;0.10;99.90;;;;;;5062536;28;20202;-66
2023/12/06 08:09:12;;;;;;;31.67;15.23;;;0.10;99.90;;;;;;5070880;28;20559;-66
2023/12/06 08:11:41;;;;;;;27.90;14.37;;;0.20;99.90;;;;;;5069523;28;20288;-67
2023/12/06 08:14:08;;;;;;;34.30;16.73;;;0.20;99.90;;;;;;5074378;28;20224;-66
2023/12/06 08:16:35;;;;;;;36.90;17.83;;;0.20;99.90;;;;;;5067436;28;20672;-66
2023/12/06 08:19:03;;;;;;;34.10;17.70;;;0.20;99.90;;;;;;5041616;28;20711;-67
2023/12/06 08:21:30;;;;;;;30.87;16.03;;;0.30;99.90;;;;;;5047040;28;20216;-67
2023/12/06 08:23:57;;;;;;;37.13;18.37;;;0.20;99.90;;;;;;5073259;28;20231;-67
2023/12/06 08:26:24;;;;;;;37.00;17.83;;;0.30;99.90;;;;;;5059900;28;20664;-66
2023/12/06 08:28:52;;;;;;;35.77;16.40;;;0.30;99.90;;;;;;5066480;28;20194;-66
2023/12/06 08:31:19;;;;;;;36.87;17.63;;;0.30;99.90;;;;;;5063497;28;20193;-66
2023/12/06 08:33:46;;;;;;;36.43;17.97;;;0.30;99.90;;;;;;5066096;28;20220;-66
2023/12/06 08:36:13;;;;;;;36.83;18.07;;;0.30;99.90;;;;;;5069479;28;20308;-67
2023/12/06 08:38:41;;;;;;;34.23;16.23;;;0.20;99.90;;;;;;5069530;28;20219;-66
2023/12/06 08:41:09;;;;;;;34.67;16.00;;;0.20;99.90;;;;;;5066732;28;20186;-67
2023/12/06 08:43:37;;;;;;;34.30;16.20;;;0.30;99.90;;;;;;5064920;28;20228;-67
2023/12/06 08:46:07;;;;;;;36.63;18.10;;;0.20;99.90;;;;;;5075052;28;20213;-66
2023/12/06 08:48:33;;;;;;;41.40;20.27;;;0.30;99.90;;;;;;5073507;28;20185;-67
2023/12/06 08:51:01;;;;;;;39.83;19.40;;;0.20;99.90;;;;;;5062099;28;20282;-67
2023/12/06 08:53:29;;;;;;;35.17;17.00;;;0.20;99.90;;;;;;5064763;28;20281;-66
2023/12/06 08:55:56;;;;;;;38.83;18.27;;;0.20;99.90;;;;;;5069936;28;20193;-66
2023/12/06 08:58:24;;;;;;;35.93;17.80;;;0.10;99.90;;;;;;5073212;28;20271;-67
2023/12/06 09:00:51;;;;;;;34.03;17.83;;;0.10;99.90;;;;;;5069026;28;20193;-67
2023/12/06 09:03:19;;;;;;;31.50;16.67;;;0.10;99.90;;;;;;5068374;28;20235;-67
2023/12/06 09:05:46;;;;;;;38.63;18.27;;;0.20;99.90;;;;;;5067420;28;20695;-66
2023/12/06 09:08:14;;;;;;;34.83;17.50;;;0.20;99.90;;;;;;5049434;28;21197;-67
2023/12/06 09:10:41;;;;;;;38.47;18.33;;;0.20;99.90;;;;;;5069062;28;20704;-67
2023/12/06 09:13:08;;;;;;;42.90;19.80;;;0.20;99.90;;;;;;5049013;28;20284;-66
2023/12/06 09:15:35;;;;;;;40.37;20.07;;;0.20;99.90;;;;;;5069030;28;20193;-67
2023/12/06 09:18:02;;;;;;;44.10;20.60;;;0.20;99.90;;;;;;5069158;28;20200;-67
2023/12/06 09:20:30;;;;;;;38.90;18.87;;;0.10;99.90;;;;;;5066767;28;20202;-66
2023/12/06 09:22:57;;;;;;;40.00;19.00;;;0.20;99.90;;;;;;5049664;28;20546;-67
2023/12/06 09:25:25;;;;;;;39.23;18.13;;;0.20;99.90;;;;;;5079183;28;20234;-66
2023/12/06 09:27:52;;;;;;;40.40;19.37;;;0.20;99.90;;;;;;5050368;28;20193;-67
2023/12/06 09:30:19;;;;;;;37.93;18.27;;;0.20;99.90;;;;;;5046684;28;20661;-67
2023/12/06 09:32:47;;;;;;;39.87;19.47;;;0.20;99.90;;;;;;5073632;28;20201;-67
2023/12/06 09:35:14;;;;;;;36.07;16.87;;;0.20;99.90;;;;;;5072195;28;20200;-67
2023/12/06 09:37:43;;;;;;;35.70;16.50;;;0.30;99.90;;;;;;5046393;28;20975;-67
2023/12/06 09:40:11;;;;;;;37.07;17.90;;;0.30;99.90;;;;;;5070443;28;20193;-67
2023/12/06 09:42:42;;;;;;;35.57;17.47;;;0.30;99.90;;;;;;5069493;28;20212;-67
2023/12/06 09:45:09;;;;;;;36.20;18.23;;;0.40;99.90;;;;;;5075202;28;20217;-67
2023/12/06 09:47:37;;;;;;;40.07;20.07;;;0.40;99.90;;;;;;5068456;28;20283;-67
2023/12/06 09:50:04;;;;;;;41.53;19.87;;;0.40;99.90;;;;;;5071482;28;20257;-67
2023/12/06 09:52:31;;;;;;;37.63;18.63;;;0.60;99.90;;;;;;5080548;28;20188;-67
2023/12/06 09:55:01;;;;;;;33.37;16.43;;;0.40;99.90;;;;;;5073767;28;20197;-67
2023/12/06 09:57:28;;;;;;;44.23;18.67;;;0.30;99.90;;;;;;5067061;28;20624;-66
2023/12/06 09:59:55;;;;;;;32.60;16.43;;;0.30;99.90;;;;;;5070071;28;20189;-66
2023/12/06 10:02:22;;;;;;;30.70;15.93;;;0.30;99.90;;;;;;5074213;28;20265;-67
2023/12/06 10:04:50;;;;;;;36.57;17.40;;;0.40;99.90;;;;;;5068826;28;20284;-67
2023/12/06 10:07:17;;;;;;;38.10;17.70;;;0.40;99.90;;;;;;5045989;28;20188;-67
2023/12/06 10:09:50;;;;;;;38.07;18.10;;;0.50;99.90;;;;;;5061177;28;20205;-67
2023/12/06 10:12:18;;;;;;;32.80;16.50;;;0.50;99.90;;;;;;5069676;28;20188;-67
2023/12/06 10:14:46;;;;;;;35.83;17.40;;;0.60;99.90;;;;;;5069141;28;20190;-67
2023/12/06 10:17:13;;;;;;;35.80;16.57;;;0.60;99.90;;;;;;5066811;28;20197;-68
2023/12/06 10:19:41;;;;;;;32.33;14.60;;;0.60;99.90;;;;;;5049154;28;20291;-68
2023/12/06 10:22:08;;;;;;;35.00;16.97;;;0.60;99.90;;;;;;5064518;28;20214;-68
2023/12/06 10:24:43;;;;;;;34.30;16.63;;;0.60;99.90;;;;;;5040629;28;20296;-68
2023/12/06 10:27:12;;;;;;;30.43;14.83;;;0.60;99.90;;;;;;5069487;28;20528;-68
2023/12/06 10:29:41;;;;;;;37.40;17.93;;;0.60;99.90;;;;;;5074492;28;20197;-67
2023/12/06 10:32:09;;;;;;;41.27;19.20;;;0.70;99.90;;;;;;5069779;28;20589;-68
2023/12/06 10:34:38;;;;;;;39.27;17.50;;;0.60;99.90;;;;;;5055066;28;20693;-68
2023/12/06 10:37:06;;;;;;;36.07;16.70;;;0.60;99.90;;;;;;5067783;28;20310;-68
2023/12/06 10:39:35;;;;;;;37.53;17.50;;;0.70;99.90;;;;;;5072742;28;20658;-67
2023/12/06 10:42:09;;;;;;;34.90;16.73;;;0.70;99.90;;;;;;5047428;28;20251;-68
2023/12/06 10:44:38;;;;;;;31.90;15.03;;;0.70;99.90;;;;;;5057599;28;20188;-68
2023/12/06 10:47:07;;;;;;;35.47;16.53;;;0.70;99.90;;;;;;5063575;28;20232;-68
2023/12/06 10:49:34;;;;;;;40.00;16.73;;;0.70;99.90;;;;;;5069643;28;20197;-68
2023/12/06 10:52:03;;;;;;;34.37;15.97;;;0.70;99.90;;;;;;5047895;28;20563;-68
2023/12/06 10:54:30;;;;;;;33.70;15.80;;;0.70;99.90;;;;;;5049091;28;20645;-68
2023/12/06 10:56:58;;;;;;;32.77;14.77;;;0.70;99.90;;;;;;5046696;28;20247;-68
2023/12/06 10:59:26;;;;;;;30.90;13.73;;;0.80;99.90;;;;;;5067009;28;20219;-68
2023/12/06 11:01:55;;;;;;;40.20;17.13;;;0.80;99.90;;;;;;5076915;28;20190;-68
2023/12/06 11:04:26;;;;;;;32.53;14.80;;;0.80;99.90;;;;;;5068050;28;20843;-68
2023/12/06 11:07:04;;;;;;;32.07;15.27;;;0.80;99.90;;;;;;5066793;28;20280;-68
2023/12/06 11:09:40;;;;;;;33.00;14.63;;;0.80;99.90;;;;;;5065278;28;20193;-68
2023/12/06 11:12:19;;;;;;;25.67;12.30;;;0.90;99.90;;;;;;5052419;28;20642;-69
2023/12/06 11:15:12;;;;;;;30.03;13.77;;;0.80;99.90;;;;;;5074415;28;20660;-68
2023/12/06 11:17:47;;;;;;;30.33;14.50;;;0.90;99.90;;;;;;5065021;28;20865;-68
2023/12/06 11:20:16;;;;;;;33.33;15.23;;;0.90;99.90;;;;;;5071742;28;20351;-68
2023/12/06 11:22:43;;;;;;;39.67;16.53;;;0.90;99.90;;;;;;5072950;28;20197;-68
2023/12/06 11:25:10;;;;;;;35.60;15.87;;;0.90;99.90;;;;;;5070943;28;20197;-67
2023/12/06 11:27:41;;;;;;;35.83;16.70;;;0.90;99.90;;;;;;5069472;28;20273;-68
2023/12/06 11:30:17;;;;;;;37.00;16.33;;;0.90;99.90;;;;;;5070925;28;20193;-68
2023/12/06 11:32:44;;;;;;;36.17;15.87;;;0.90;99.90;;;;;;5069763;28;20961;-67
2023/12/06 11:35:12;;;;;;;35.97;17.07;;;0.90;99.90;;;;;;5072739;28;20650;-67
2023/12/06 11:37:40;;;;;;;37.93;16.07;;;0.90;99.90;;;;;;5075778;28;20620;-68
2023/12/06 11:40:18;;;;;;;39.43;17.37;;;0.90;99.90;;;;;;5080421;28;20215;-68
2023/12/06 11:42:54;;;;;;;33.40;15.47;;;0.90;99.90;;;;;;5067264;28;20189;-68
2023/12/06 11:45:29;;;;;;;36.13;16.60;;;0.90;99.90;;;;;;5068912;28;20271;-68
2023/12/06 11:47:58;;;;;;;41.37;17.67;;;0.80;99.90;;;;;;5070245;28;20241;-68
2023/12/06 11:50:26;;;;;;;36.90;17.23;;;0.80;99.90;;;;;;5071026;28;20219;-68
2023/12/06 11:52:55;;;;;;;42.53;19.00;;;0.90;99.90;;;;;;5074877;28;20276;-68
2023/12/06 11:55:24;;;;;;;42.63;20.37;;;0.90;99.90;;;;;;5053089;28;20193;-68
2023/12/06 11:57:59;;;;;;;50.53;21.87;;;0.90;99.90;;;;;;5053779;28;20228;-68
2023/12/06 12:00:26;;;;;;;40.97;18.77;;;0.90;99.90;;;;;;5071530;28;20189;-68
2023/12/06 12:02:55;;;;;;;36.37;16.30;;;0.80;99.90;;;;;;5071031;28;20232;-68
2023/12/06 12:05:25;;;;;;;33.07;15.63;;;0.90;99.90;;;;;;5072038;28;20205;-68
2023/12/06 12:07:52;;;;;;;36.90;15.83;;;0.80;99.90;;;;;;5068622;28;20274;-70
2023/12/06 12:10:21;;;;;;;35.93;16.17;;;0.80;99.90;;;;;;5069690;28;20271;-68
2023/12/06 12:12:48;;;;;;;34.30;15.97;;;0.90;99.90;;;;;;5052679;28;20259;-68
2023/12/06 12:15:17;;;;;;;31.43;14.37;;;0.90;99.90;;;;;;5062532;28;20710;-68
2023/12/06 12:17:45;;;;;;;28.20;14.37;;;0.90;99.90;;;;;;5048472;28;20288;-68
2023/12/06 12:20:13;;;;;;;31.87;14.93;;;1.00;99.90;;;;;;5071413;28;20253;-68
2023/12/06 12:22:47;;;;;;;29.43;14.10;;;0.90;99.90;;;;;;5071572;28;20197;-68
2023/12/06 12:25:15;;;;;;;27.63;13.33;;;0.90;99.90;;;;;;5063000;28;20260;-68
2023/12/06 12:27:44;;;;;;;27.07;13.50;;;1.00;99.90;;;;;;5071324;28;20413;-68
2023/12/06 12:30:12;;;;;;;32.90;15.30;;;1.00;99.90;;;;;;5071582;28;20621;-68
2023/12/06 12:32:42;;;;;;;39.20;17.30;;;1.00;99.90;;;;;;5071436;28;20207;-68
2023/12/06 12:35:10;;;;;;;35.87;16.37;;;1.00;99.90;;;;;;5065611;28;20284;-68
2023/12/06 12:37:38;;;;;;;35.20;15.93;;;1.00;99.90;;;;;;5064761;28;20975;-68